Collbran, Colorado
Current Conditions -  °F | °C
As of 2:48 PM on Monday 24 Nov 2014 (Local Time) from KRIL Reporting Station
Light Snow Light Snow  
Wind Chill: 28°   Ceiling: 1900
Heat Index: 28°   Visibility: 1mi
Dew Point: 25°   Wind: 3mph
Humidity: 86%   Direction: 220°SW
Pressure: 30.22"   Gusts: NA
Location:  39.24°N, 107.96°W
Report Text: KRIL 242148Z AUTO 22003KT 1SM -SN BKN019 OVC039 M02/M04 A3022 RMK AO2 UPB39E41SNB2057E23B41 P0000
Loading
Personal Weather Stations






























Interactive Weather Map New forecast layout! Learn more

10-Day Weather Forecast

Advertisements
Track Severe Weather on mobile